Time;durP1;ratioP1;P1;durP2;ratioP2;P2;SDS_P1;SDS_P2;PMS_P1;PMS_P2;Temp;Humidity;BMP_temperature;BMP_pressure;BME280_temperature;BME280_humidity;BME280_pressure;Samples;Min_cycle;Max_cycle;Signal;HPM_P1;HPM_P2
2023/01/09 00:00:17;;;;;;;26.40;10.57;;;;;;;;;;6211075;23;20209;-88
2023/01/09 00:03:24;;;;;;;24.23;10.47;;;;;;;;;;6210329;22;20158;-89
2023/01/09 00:06:28;;;;;;;24.47;10.03;;;;;;;;;;6210049;23;20501;-91
2023/01/09 00:09:34;;;;;;;21.07;10.20;;;;;;;;;;6210429;23;20171;-90
2023/01/09 00:12:39;;;;;;;24.23;9.77;;;;;;;;;;6210576;23;20242;-91
2023/01/09 00:15:43;;;;;;;22.33;10.40;;;;;;;;;;6211141;23;20170;-91
2023/01/09 00:18:52;;;;;;;23.30;10.77;;;;;;;;;;6209761;23;20194;-89
2023/01/09 00:21:57;;;;;;;21.77;9.97;;;;;;;;;;6210769;22;20167;-88
2023/01/09 00:25:02;;;;;;;21.43;10.00;;;;;;;;;;6207792;23;20167;-88
2023/01/09 00:28:07;;;;;;;21.23;9.80;;;;;;;;;;6208525;23;20263;-89
2023/01/09 00:31:13;;;;;;;21.40;10.13;;;;;;;;;;6208670;23;20171;-88
2023/01/09 00:34:19;;;;;;;19.37;9.37;;;;;;;;;;6208694;23;20166;-88
2023/01/09 00:37:24;;;;;;;22.40;9.83;;;;;;;;;;6211806;22;20170;-87
2023/01/09 00:40:29;;;;;;;24.07;9.50;;;;;;;;;;6211000;23;20172;-88
2023/01/09 00:43:36;;;;;;;20.30;9.70;;;;;;;;;;6211742;23;20163;-90
2023/01/09 00:46:44;;;;;;;18.77;9.07;;;;;;;;;;6207987;23;20239;-88
2023/01/09 00:49:51;;;;;;;19.67;9.87;;;;;;;;;;6209216;23;20155;-89
2023/01/09 00:52:58;;;;;;;21.43;9.17;;;;;;;;;;6211746;23;20219;-88
2023/01/09 00:56:05;;;;;;;20.77;9.40;;;;;;;;;;6211444;23;20190;-88
2023/01/09 00:59:11;;;;;;;21.40;9.77;;;;;;;;;;6210381;23;20255;-91
2023/01/09 01:02:15;;;;;;;19.17;9.30;;;;;;;;;;6209561;23;20168;-89
2023/01/09 01:08:45;;;;;;;43.93;14.67;;;;;;;;;;6209213;22;20661;-87
2023/01/09 01:11:50;;;;;;;29.30;11.87;;;;;;;;;;6209958;23;20503;-88
2023/01/09 01:14:55;;;;;;;22.03;10.13;;;;;;;;;;6209637;23;20240;-89
2023/01/09 01:18:00;;;;;;;23.63;10.10;;;;;;;;;;6207748;23;20650;-90
2023/01/09 01:21:08;;;;;;;24.67;10.67;;;;;;;;;;6207493;22;20155;-89
2023/01/09 01:24:13;;;;;;;26.40;11.40;;;;;;;;;;6208651;22;20228;-89
2023/01/09 01:27:18;;;;;;;29.10;12.00;;;;;;;;;;6209811;23;20238;-89
2023/01/09 01:30:23;;;;;;;25.33;10.97;;;;;;;;;;6211714;23;20187;-87
2023/01/09 01:33:28;;;;;;;22.60;9.90;;;;;;;;;;6210634;23;20213;-89
2023/01/09 01:36:35;;;;;;;20.43;10.40;;;;;;;;;;6211389;23;20191;-90
2023/01/09 01:39:40;;;;;;;24.73;10.03;;;;;;;;;;6211919;22;20171;-87
2023/01/09 01:42:48;;;;;;;21.03;9.57;;;;;;;;;;6211438;22;20166;-88
2023/01/09 01:45:53;;;;;;;25.47;10.43;;;;;;;;;;6210912;23;20170;-87
2023/01/09 01:49:02;;;;;;;20.93;9.60;;;;;;;;;;6208646;23;20190;-89
2023/01/09 01:52:08;;;;;;;21.70;9.63;;;;;;;;;;6209987;23;20235;-88
2023/01/09 01:55:13;;;;;;;31.00;12.37;;;;;;;;;;6210580;22;20167;-88
2023/01/09 01:58:18;;;;;;;22.20;9.97;;;;;;;;;;6210484;23;20222;-88
2023/01/09 02:01:23;;;;;;;28.57;11.03;;;;;;;;;;6211016;23;20179;-91
2023/01/09 02:04:29;;;;;;;27.60;10.47;;;;;;;;;;6228480;23;20171;-90
2023/01/09 02:07:36;;;;;;;20.03;9.43;;;;;;;;;;6209992;23;20191;-88
2023/01/09 02:10:44;;;;;;;26.07;10.43;;;;;;;;;;6210327;23;20222;-88
2023/01/09 02:13:49;;;;;;;25.87;10.33;;;;;;;;;;6209520;22;20151;-88
2023/01/09 02:16:58;;;;;;;21.23;9.50;;;;;;;;;;6217824;23;20163;-87
2023/01/09 02:20:22;;;;;;;25.83;10.70;;;;;;;;;;6217029;23;20187;-87
2023/01/09 02:23:46;;;;;;;24.10;9.77;;;;;;;;;;6215858;23;20151;-89
2023/01/09 02:27:03;;;;;;;20.20;8.93;;;;;;;;;;6216165;22;20175;-89
2023/01/09 02:30:26;;;;;;;27.50;11.20;;;;;;;;;;6212556;23;20303;-88
2023/01/09 02:33:38;;;;;;;25.50;10.13;;;;;;;;;;6211672;23;20163;-92
2023/01/09 02:36:48;;;;;;;22.73;9.87;;;;;;;;;;6211845;23;20172;-90
2023/01/09 02:39:57;;;;;;;26.93;11.13;;;;;;;;;;6211320;23;20171;-89
2023/01/09 02:43:03;;;;;;;20.43;9.87;;;;;;;;;;6212165;23;20170;-89
2023/01/09 02:46:18;;;;;;;33.83;13.03;;;;;;;;;;6209858;23;20198;-87
2023/01/09 02:49:24;;;;;;;35.13;14.40;;;;;;;;;;6209010;23;20194;-90
2023/01/09 02:52:34;;;;;;;42.60;15.30;;;;;;;;;;6210767;23;20150;-90
2023/01/09 02:55:50;;;;;;;44.00;16.10;;;;;;;;;;6209227;23;20179;-90
2023/01/09 02:59:03;;;;;;;40.23;16.20;;;;;;;;;;6210761;23;20184;-88
2023/01/09 03:02:17;;;;;;;44.03;17.10;;;;;;;;;;6209800;23;20219;-87
2023/01/09 03:05:27;;;;;;;43.70;17.03;;;;;;;;;;6211684;22;20172;-89
2023/01/09 03:08:35;;;;;;;42.67;16.97;;;;;;;;;;6210282;23;20199;-88
2023/01/09 03:11:42;;;;;;;43.03;16.73;;;;;;;;;;6209272;23;20241;-91
2023/01/09 03:14:48;;;;;;;42.67;17.07;;;;;;;;;;6210342;23;20291;-92
2023/01/09 03:17:54;;;;;;;40.93;16.47;;;;;;;;;;6208956;23;20210;-92
2023/01/09 03:21:01;;;;;;;44.53;18.27;;;;;;;;;;6210930;22;20150;-89
2023/01/09 03:24:06;;;;;;;41.33;16.33;;;;;;;;;;6210339;22;20623;-88
2023/01/09 03:27:11;;;;;;;32.90;15.33;;;;;;;;;;6208765;23;20222;-89
2023/01/09 03:30:17;;;;;;;39.47;15.47;;;;;;;;;;6209406;23;20171;-88
2023/01/09 03:33:22;;;;;;;38.40;15.43;;;;;;;;;;6209229;23;20171;-87
2023/01/09 03:36:29;;;;;;;35.37;14.50;;;;;;;;;;6210502;22;20167;-88
2023/01/09 03:39:36;;;;;;;36.37;15.17;;;;;;;;;;6210085;23;20171;-87
2023/01/09 03:42:40;;;;;;;38.60;15.83;;;;;;;;;;6211061;23;20179;-92
2023/01/09 03:45:46;;;;;;;39.03;15.90;;;;;;;;;;6210269;23;20666;-90
2023/01/09 03:48:51;;;;;;;39.10;15.93;;;;;;;;;;6207300;23;20199;-90
2023/01/09 03:51:58;;;;;;;36.60;16.00;;;;;;;;;;6207163;23;20158;-90
2023/01/09 03:55:03;;;;;;;38.77;15.83;;;;;;;;;;6208992;22;20152;-89
2023/01/09 03:58:08;;;;;;;37.73;15.73;;;;;;;;;;6209129;23;20174;-88
2023/01/09 04:01:13;;;;;;;45.90;17.33;;;;;;;;;;6210324;23;20250;-88
2023/01/09 04:04:18;;;;;;;34.70;15.57;;;;;;;;;;6210358;23;20162;-89
2023/01/09 04:07:24;;;;;;;36.53;15.60;;;;;;;;;;6210024;23;20500;-89
2023/01/09 04:10:30;;;;;;;35.70;15.60;;;;;;;;;;6211191;22;20175;-91
2023/01/09 04:13:35;;;;;;;39.50;16.77;;;;;;;;;;6210600;22;20164;-89
2023/01/09 04:16:40;;;;;;;37.83;15.63;;;;;;;;;;6210333;23;20179;-89
2023/01/09 04:19:45;;;;;;;42.40;16.37;;;;;;;;;;6180167;23;20198;-89
2023/01/09 04:22:52;;;;;;;42.97;16.53;;;;;;;;;;6179232;23;20167;-88
2023/01/09 04:25:57;;;;;;;39.13;15.80;;;;;;;;;;6178736;23;20164;-90
2023/01/09 04:29:02;;;;;;;39.60;16.20;;;;;;;;;;6177968;23;20195;-88
2023/01/09 04:32:07;;;;;;;37.03;15.87;;;;;;;;;;6180351;23;20191;-89
2023/01/09 04:35:13;;;;;;;42.90;16.80;;;;;;;;;;6179652;23;20164;-89
2023/01/09 04:38:19;;;;;;;40.53;16.47;;;;;;;;;;6178864;23;20215;-88
2023/01/09 04:44:47;;;;;;;44.53;16.17;;;;;;;;;;6181503;23;20172;-88
2023/01/09 04:47:52;;;;;;;39.53;16.20;;;;;;;;;;6181759;23;20168;-90
2023/01/09 04:50:57;;;;;;;38.47;15.37;;;;;;;;;;6179654;23;20280;-87
2023/01/09 04:54:04;;;;;;;35.23;15.17;;;;;;;;;;6179449;23;20287;-87
2023/01/09 04:57:09;;;;;;;35.37;14.27;;;;;;;;;;6179739;23;20503;-91
2023/01/09 05:00:15;;;;;;;35.13;14.90;;;;;;;;;;6178669;23;20187;-88
2023/01/09 05:03:20;;;;;;;39.53;16.87;;;;;;;;;;6181193;23;20172;-88
2023/01/09 05:06:25;;;;;;;40.33;15.27;;;;;;;;;;6180313;23;20727;-90
2023/01/09 05:09:32;;;;;;;37.43;16.07;;;;;;;;;;6179624;23;20196;-89
2023/01/09 05:12:38;;;;;;;37.00;16.33;;;;;;;;;;6180166;23;20172;-87
2023/01/09 05:15:43;;;;;;;47.47;16.40;;;;;;;;;;6179499;23;20287;-90
2023/01/09 05:18:48;;;;;;;36.77;15.77;;;;;;;;;;6220664;23;20576;-85
2023/01/09 05:21:53;;;;;;;39.97;16.23;;;;;;;;;;6210985;23;20222;-89
2023/01/09 05:25:00;;;;;;;38.43;16.43;;;;;;;;;;6210250;23;20183;-88
2023/01/09 05:28:05;;;;;;;40.33;16.63;;;;;;;;;;6208412;23;20183;-90
2023/01/09 05:31:11;;;;;;;44.27;18.00;;;;;;;;;;6229087;22;20224;-88
2023/01/09 05:34:16;;;;;;;44.50;17.87;;;;;;;;;;6208970;22;20167;-87
2023/01/09 05:37:20;;;;;;;37.27;16.50;;;;;;;;;;6210524;23;20317;-91
2023/01/09 05:40:27;;;;;;;39.43;16.47;;;;;;;;;;6213735;23;20171;-89
2023/01/09 05:43:33;;;;;;;37.10;16.77;;;;;;;;;;6214124;23;20191;-91
2023/01/09 05:46:38;;;;;;;44.33;18.17;;;;;;;;;;6208857;23;20579;-88
2023/01/09 05:49:43;;;;;;;41.93;17.47;;;;;;;;;;6210220;22;20650;-89
2023/01/09 05:52:48;;;;;;;46.13;17.57;;;;;;;;;;6209599;23;20167;-89
2023/01/09 05:55:54;;;;;;;44.20;18.60;;;;;;;;;;6208774;23;20622;-88
2023/01/09 05:58:59;;;;;;;44.03;17.33;;;;;;;;;;6207758;23;20223;-89
2023/01/09 06:02:04;;;;;;;47.20;19.30;;;;;;;;;;6211890;22;20147;-89
2023/01/09 06:05:10;;;;;;;47.13;17.80;;;;;;;;;;6209948;23;20246;-89
2023/01/09 06:08:15;;;;;;;46.03;19.10;;;;;;;;;;6209960;23;20176;-87
2023/01/09 06:11:21;;;;;;;45.77;16.93;;;;;;;;;;6230667;22;20194;-90
2023/01/09 06:14:27;;;;;;;50.00;18.77;;;;;;;;;;6213100;23;20175;-87
2023/01/09 06:17:40;;;;;;;47.40;18.50;;;;;;;;;;6212833;23;20195;-88
2023/01/09 06:20:46;;;;;;;46.30;17.83;;;;;;;;;;6213760;23;20170;-90
2023/01/09 06:23:51;;;;;;;47.17;19.80;;;;;;;;;;6212776;23;20170;-88
2023/01/09 06:26:58;;;;;;;48.60;19.57;;;;;;;;;;6210839;23;20151;-88
2023/01/09 06:30:04;;;;;;;45.23;18.40;;;;;;;;;;6211890;23;20240;-88
2023/01/09 06:33:09;;;;;;;49.00;19.67;;;;;;;;;;6210615;23;20183;-88
2023/01/09 06:36:14;;;;;;;50.73;19.07;;;;;;;;;;6212798;23;20155;-88
2023/01/09 06:42:40;;;;;;;47.50;18.90;;;;;;;;;;6213562;23;20213;-89
2023/01/09 06:45:45;;;;;;;48.70;19.97;;;;;;;;;;6209402;23;20167;-89
2023/01/09 06:48:50;;;;;;;49.93;19.47;;;;;;;;;;6209693;22;20194;-89
2023/01/09 06:51:56;;;;;;;47.70;19.13;;;;;;;;;;6209987;22;20215;-89
2023/01/09 06:55:01;;;;;;;44.03;18.47;;;;;;;;;;6211568;23;20619;-89
2023/01/09 06:58:07;;;;;;;38.67;17.37;;;;;;;;;;6210280;23;20211;-88
2023/01/09 07:01:12;;;;;;;45.03;18.33;;;;;;;;;;6211172;23;20465;-89
2023/01/09 07:04:17;;;;;;;46.10;19.20;;;;;;;;;;6210609;22;20159;-88
2023/01/09 07:07:23;;;;;;;37.37;16.60;;;;;;;;;;6212259;22;20171;-91
2023/01/09 07:10:29;;;;;;;37.07;17.07;;;;;;;;;;6211792;23;20195;-91
2023/01/09 07:13:37;;;;;;;43.80;16.90;;;;;;;;;;6212223;23;20162;-91
2023/01/09 07:16:46;;;;;;;33.57;15.13;;;;;;;;;;6212563;23;20258;-89
2023/01/09 07:19:51;;;;;;;35.37;16.27;;;;;;;;;;6180352;23;20214;-88
2023/01/09 07:22:58;;;;;;;37.17;16.90;;;;;;;;;;6181216;23;20220;-91
2023/01/09 07:26:04;;;;;;;38.17;16.93;;;;;;;;;;6181668;23;20163;-89
2023/01/09 07:29:11;;;;;;;39.77;16.93;;;;;;;;;;6183935;23;20262;-89
2023/01/09 07:32:17;;;;;;;40.77;17.03;;;;;;;;;;6182953;23;20500;-89
2023/01/09 07:35:22;;;;;;;39.87;16.83;;;;;;;;;;6181666;23;20159;-91
2023/01/09 07:38:28;;;;;;;36.70;16.17;;;;;;;;;;6178981;23;20267;-88
2023/01/09 07:41:33;;;;;;;37.57;16.60;;;;;;;;;;6180447;23;20195;-89
2023/01/09 07:44:40;;;;;;;36.77;16.37;;;;;;;;;;6179034;23;20167;-89
2023/01/09 07:47:45;;;;;;;56.50;27.13;;;;;;;;;;6177745;23;20239;-89
2023/01/09 07:50:50;;;;;;;34.87;16.43;;;;;;;;;;6179045;23;20307;-90
2023/01/09 07:53:55;;;;;;;41.83;19.07;;;;;;;;;;6179967;23;20152;-87
2023/01/09 07:57:00;;;;;;;38.90;17.93;;;;;;;;;;6178665;23;20171;-89
2023/01/09 08:00:09;;;;;;;41.03;17.70;;;;;;;;;;6179325;23;20287;-88
2023/01/09 08:03:17;;;;;;;40.27;16.57;;;;;;;;;;6179175;23;20168;-90
2023/01/09 08:06:23;;;;;;;39.33;16.60;;;;;;;;;;6177078;23;20171;-88
2023/01/09 08:09:28;;;;;;;60.03;25.93;;;;;;;;;;6177262;23;20188;-89
2023/01/09 08:12:32;;;;;;;40.27;16.80;;;;;;;;;;6178542;23;20162;-89
2023/01/09 08:15:39;;;;;;;40.97;16.03;;;;;;;;;;6181341;23;20163;-89
2023/01/09 08:18:44;;;;;;;33.10;15.37;;;;;;;;;;6201525;23;20187;-90
2023/01/09 08:21:49;;;;;;;34.73;16.43;;;;;;;;;;6209201;23;20614;-88
2023/01/09 08:24:55;;;;;;;33.90;15.30;;;;;;;;;;6208500;23;20166;-89
2023/01/09 08:27:59;;;;;;;38.80;17.10;;;;;;;;;;6208866;22;20155;-88
2023/01/09 08:31:06;;;;;;;34.07;16.47;;;;;;;;;;6208351;23;20286;-90
2023/01/09 08:34:11;;;;;;;38.43;15.97;;;;;;;;;;6211128;23;20250;-88
2023/01/09 08:37:16;;;;;;;36.33;16.63;;;;;;;;;;6210351;23;20618;-90
2023/01/09 08:40:22;;;;;;;35.43;15.57;;;;;;;;;;6209567;23;20235;-89
2023/01/09 08:47:07;;;;;;;34.73;15.57;;;;;;;;;;6209746;23;20172;-88
2023/01/09 08:50:13;;;;;;;35.33;16.37;;;;;;;;;;6208695;23;20709;-89
2023/01/09 08:53:18;;;;;;;32.63;15.43;;;;;;;;;;6208031;23;20614;-88
2023/01/09 08:56:23;;;;;;;32.60;14.63;;;;;;;;;;6209815;22;20166;-89
2023/01/09 08:59:28;;;;;;;35.40;15.67;;;;;;;;;;6209636;23;20179;-89
2023/01/09 09:02:35;;;;;;;33.40;14.97;;;;;;;;;;6217433;23;20241;-88
2023/01/09 09:05:42;;;;;;;40.13;14.97;;;;;;;;;;6211774;23;20283;-89
2023/01/09 09:08:47;;;;;;;31.10;14.40;;;;;;;;;;6208089;23;20163;-88
2023/01/09 09:11:51;;;;;;;29.23;13.70;;;;;;;;;;6209294;22;20219;-89
2023/01/09 09:15:22;;;;;;;29.13;14.23;;;;;;;;;;6212588;22;20166;-90
2023/01/09 09:18:28;;;;;;;32.60;13.87;;;;;;;;;;6210968;23;20187;-91
2023/01/09 09:21:34;;;;;;;31.07;14.10;;;;;;;;;;6208962;23;20174;-90
2023/01/09 09:24:39;;;;;;;29.07;14.40;;;;;;;;;;6208636;22;20278;-89
2023/01/09 09:27:44;;;;;;;38.10;15.53;;;;;;;;;;6207753;23;20158;-89
2023/01/09 09:30:49;;;;;;;38.03;16.93;;;;;;;;;;6225451;22;20230;-90
2023/01/09 09:33:55;;;;;;;38.70;16.57;;;;;;;;;;6206672;23;20507;-89
2023/01/09 09:37:00;;;;;;;37.93;17.17;;;;;;;;;;6206586;23;20163;-91
2023/01/09 09:40:06;;;;;;;41.10;17.30;;;;;;;;;;6206920;23;20218;-91
2023/01/09 09:46:51;;;;;;;38.73;18.50;;;;;;;;;;6207245;23;20168;-91
2023/01/09 09:50:02;;;;;;;46.03;20.43;;;;;;;;;;6211158;23;20277;-90
2023/01/09 09:53:11;;;;;;;49.90;21.20;;;;;;;;;;6208743;23;20242;-90
2023/01/09 09:56:19;;;;;;;50.53;21.97;;;;;;;;;;6210281;23;20164;-91
2023/01/09 09:59:25;;;;;;;47.93;20.87;;;;;;;;;;6209964;22;20166;-90
2023/01/09 10:02:31;;;;;;;42.47;19.83;;;;;;;;;;6210304;23;20202;-90
2023/01/09 10:05:41;;;;;;;41.43;17.33;;;;;;;;;;6213415;23;20634;-90
2023/01/09 10:08:50;;;;;;;37.67;17.13;;;;;;;;;;6209018;22;20163;-90
2023/01/09 10:11:58;;;;;;;38.80;17.30;;;;;;;;;;6210625;22;20156;-91
2023/01/09 10:15:11;;;;;;;41.03;16.77;;;;;;;;;;6209161;22;20172;-90
2023/01/09 10:18:21;;;;;;;40.53;16.60;;;;;;;;;;6208905;23;20190;-89
2023/01/09 10:21:31;;;;;;;41.65;17.02;;;;;;;;;;6209992;23;20162;-91
2023/01/09 10:24:44;;;;;;;35.87;16.40;;;;;;;;;;6212154;23;20159;-88
2023/01/09 10:27:57;;;;;;;39.93;17.80;;;;;;;;;;6229280;22;20164;-88
2023/01/09 10:31:05;;;;;;;43.03;18.02;;;;;;;;;;6210315;23;20213;-89
2023/01/09 10:34:14;;;;;;;34.83;16.37;;;;;;;;;;6211681;23;20172;-89
2023/01/09 10:37:22;;;;;;;46.30;20.47;;;;;;;;;;6210263;23;20238;-92
2023/01/09 10:40:30;;;;;;;38.17;17.93;;;;;;;;;;6211573;22;20194;-90
2023/01/09 10:43:37;;;;;;;24.73;9.55;;;;;;;;;;6211691;23;20167;-88
2023/01/09 10:46:44;;;;;;;7.15;3.22;;;;;;;;;;6211341;23;20238;-88
2023/01/09 10:49:50;;;;;;;2.90;1.20;;;;;;;;;;6211396;23;20171;-90
2023/01/09 10:52:57;;;;;;;3.55;1.25;;;;;;;;;;6208395;23;20159;-90
2023/01/09 10:56:05;;;;;;;5.07;2.45;;;;;;;;;;6210515;22;20174;-88
2023/01/09 10:59:11;;;;;;;2.55;1.20;;;;;;;;;;6211535;22;20163;-88
2023/01/09 11:02:25;;;;;;;3.45;1.08;;;;;;;;;;6212741;23;20195;-90
2023/01/09 11:05:30;;;;;;;4.60;1.33;;;;;;;;;;6213310;23;20187;-90
2023/01/09 11:08:40;;;;;;;4.13;1.40;;;;;;;;;;6213889;23;20579;-89
2023/01/09 11:11:45;;;;;;;3.83;1.65;;;;;;;;;;6211007;22;20222;-88
2023/01/09 11:14:51;;;;;;;4.00;1.63;;;;;;;;;;6210878;22;20175;-88
2023/01/09 11:17:59;;;;;;;5.72;1.50;;;;;;;;;;6209492;23;20191;-90
2023/01/09 11:21:19;;;;;;;3.20;1.30;;;;;;;;;;6210986;23;20184;-87
2023/01/09 11:24:30;;;;;;;3.67;1.70;;;;;;;;;;6210669;22;20155;-89
2023/01/09 11:27:35;;;;;;;3.55;1.23;;;;;;;;;;6213744;22;20244;-90
2023/01/09 11:30:52;;;;;;;3.15;0.95;;;;;;;;;;6211502;23;20210;-88
2023/01/09 11:33:57;;;;;;;1.65;1.00;;;;;;;;;;6211270;23;20217;-88
2023/01/09 11:37:03;;;;;;;2.42;1.00;;;;;;;;;;6208954;23;20170;-89
2023/01/09 11:40:17;;;;;;;3.15;0.90;;;;;;;;;;6207895;23;20515;-90
2023/01/09 11:43:33;;;;;;;5.72;1.17;;;;;;;;;;6210483;22;20485;-89
2023/01/09 11:46:42;;;;;;;2.97;1.02;;;;;;;;;;6209544;23;20167;-88
2023/01/09 11:49:49;;;;;;;5.43;1.20;;;;;;;;;;6211574;23;20545;-88
2023/01/09 11:53:12;;;;;;;1.63;0.85;;;;;;;;;;6208708;23;20191;-89
2023/01/09 11:56:18;;;;;;;3.75;1.55;;;;;;;;;;6212699;22;20168;-90
2023/01/09 11:59:26;;;;;;;5.10;1.10;;;;;;;;;;6210962;23;20166;-91
2023/01/09 12:02:40;;;;;;;6.28;1.40;;;;;;;;;;6211119;23;20171;-89
2023/01/09 12:05:52;;;;;;;3.50;1.92;;;;;;;;;;6212742;23;20172;-89
2023/01/09 12:09:00;;;;;;;6.63;2.33;;;;;;;;;;6211338;23;20152;-89
2023/01/09 12:12:11;;;;;;;3.95;1.40;;;;;;;;;;6210413;23;20212;-88
2023/01/09 12:15:23;;;;;;;4.22;1.65;;;;;;;;;;6212018;23;20167;-89
2023/01/09 12:18:37;;;;;;;3.70;1.55;;;;;;;;;;6213993;23;20515;-87
2023/01/09 12:21:47;;;;;;;4.75;1.83;;;;;;;;;;6210978;22;20348;-89
2023/01/09 12:25:01;;;;;;;7.70;1.80;;;;;;;;;;6210517;22;20610;-89
2023/01/09 12:28:15;;;;;;;4.63;1.38;;;;;;;;;;6212993;23;20171;-90
2023/01/09 12:31:26;;;;;;;5.22;1.60;;;;;;;;;;6210640;23;20650;-89
2023/01/09 12:34:37;;;;;;;1.80;1.13;;;;;;;;;;6209722;23;20175;-89
2023/01/09 12:41:11;;;;;;;2.60;1.13;;;;;;;;;;6212419;23;20215;-89
2023/01/09 12:44:29;;;;;;;3.17;1.23;;;;;;;;;;6213130;23;20203;-88
2023/01/09 12:47:41;;;;;;;4.28;1.33;;;;;;;;;;6210047;23;20227;-88
2023/01/09 12:50:56;;;;;;;2.33;1.02;;;;;;;;;;6213242;22;20241;-88
2023/01/09 12:54:05;;;;;;;6.63;1.52;;;;;;;;;;6212068;22;20152;-89
2023/01/09 12:57:14;;;;;;;1.60;1.00;;;;;;;;;;6214264;23;20166;-90
2023/01/09 13:00:23;;;;;;;3.72;1.38;;;;;;;;;;6216378;23;20195;-91
2023/01/09 13:03:31;;;;;;;5.93;2.50;;;;;;;;;;6213564;22;20155;-91
2023/01/09 13:06:40;;;;;;;11.00;3.08;;;;;;;;;;6213089;23;20163;-89
2023/01/09 13:09:56;;;;;;;8.85;3.53;;;;;;;;;;6213034;23;20159;-88
2023/01/09 13:13:05;;;;;;;5.53;1.92;;;;;;;;;;6229506;23;20224;-88
2023/01/09 13:16:18;;;;;;;4.78;2.03;;;;;;;;;;6213158;22;20287;-90
2023/01/09 13:19:25;;;;;;;8.15;2.20;;;;;;;;;;6211487;23;20190;-89
2023/01/09 13:22:30;;;;;;;5.55;2.10;;;;;;;;;;6213322;23;20499;-90
2023/01/09 13:25:46;;;;;;;5.85;1.98;;;;;;;;;;6210953;23;20626;-89
2023/01/09 13:28:55;;;;;;;9.25;3.00;;;;;;;;;;6212159;23;20174;-89
2023/01/09 13:32:16;;;;;;;8.95;2.65;;;;;;;;;;6218932;23;20211;-89
2023/01/09 13:35:23;;;;;;;8.18;2.33;;;;;;;;;;6220675;22;20230;-89
2023/01/09 13:38:39;;;;;;;14.55;6.22;;;;;;;;;;6217061;22;20218;-89
2023/01/09 13:45:11;;;;;;;6.47;2.85;;;;;;;;;;6217103;22;20170;-87
2023/01/09 13:48:30;;;;;;;8.48;2.20;;;;;;;;;;6218402;22;20198;-90
2023/01/09 13:51:54;;;;;;;5.00;1.65;;;;;;;;;;6216896;23;20194;-89
2023/01/09 13:55:05;;;;;;;2.53;1.50;;;;;;;;;;6216508;23;20238;-89
2023/01/09 13:58:25;;;;;;;5.90;2.78;;;;;;;;;;6214774;23;20155;-88
2023/01/09 14:01:44;;;;;;;4.35;1.92;;;;;;;;;;6213053;23;20226;-91
2023/01/09 14:04:49;;;;;;;3.72;2.13;;;;;;;;;;6213417;23;20151;-88
2023/01/09 14:08:02;;;;;;;6.25;1.77;;;;;;;;;;6216084;22;20163;-90
2023/01/09 14:11:10;;;;;;;2.33;1.27;;;;;;;;;;6212297;23;20214;-89
2023/01/09 14:14:23;;;;;;;4.93;1.70;;;;;;;;;;6234488;22;20176;-88
2023/01/09 14:17:32;;;;;;;6.65;2.83;;;;;;;;;;6217102;23;20191;-88
2023/01/09 14:20:38;;;;;;;3.80;2.00;;;;;;;;;;6212987;23;20155;-89
2023/01/09 14:23:49;;;;;;;4.90;2.20;;;;;;;;;;6213700;22;20159;-89
2023/01/09 14:26:56;;;;;;;3.67;1.33;;;;;;;;;;6212431;23;20218;-90
2023/01/09 14:30:17;;;;;;;3.53;1.60;;;;;;;;;;6212248;23;20163;-89
2023/01/09 14:33:27;;;;;;;6.45;1.80;;;;;;;;;;6208812;23;20167;-90
2023/01/09 14:36:34;;;;;;;2.90;1.23;;;;;;;;;;6210203;23;20179;-88
2023/01/09 14:39:42;;;;;;;7.85;2.90;;;;;;;;;;6211151;22;20163;-87
2023/01/09 14:42:52;;;;;;;8.63;2.67;;;;;;;;;;6212649;23;20183;-88
2023/01/09 14:45:59;;;;;;;8.05;2.75;;;;;;;;;;6212355;23;20172;-89
2023/01/09 14:49:06;;;;;;;10.13;2.60;;;;;;;;;;6210958;23;20650;-89
2023/01/09 14:52:16;;;;;;;6.45;2.50;;;;;;;;;;6208558;23;20194;-87
2023/01/09 14:55:25;;;;;;;5.63;1.95;;;;;;;;;;6211631;23;20171;-88
2023/01/09 14:58:32;;;;;;;5.57;1.98;;;;;;;;;;6211340;22;20155;-88
2023/01/09 15:01:38;;;;;;;11.80;2.40;;;;;;;;;;6211069;23;20290;-89
2023/01/09 15:04:44;;;;;;;18.23;5.82;;;;;;;;;;6211777;23;20669;-89
2023/01/09 15:07:51;;;;;;;11.15;3.72;;;;;;;;;;6210330;23;20211;-89
2023/01/09 15:10:58;;;;;;;13.90;5.50;;;;;;;;;;6210953;22;20151;-88
2023/01/09 15:14:06;;;;;;;17.17;5.50;;;;;;;;;;6209478;23;20179;-89
2023/01/09 15:17:19;;;;;;;6.68;2.47;;;;;;;;;;6212506;23;20158;-87
2023/01/09 15:20:27;;;;;;;6.82;2.35;;;;;;;;;;6214166;23;20187;-88
2023/01/09 15:23:32;;;;;;;4.85;1.80;;;;;;;;;;6210876;23;20154;-86
2023/01/09 15:26:39;;;;;;;3.40;1.67;;;;;;;;;;6214276;22;20193;-87
2023/01/09 15:29:47;;;;;;;4.70;2.38;;;;;;;;;;6213719;23;20167;-87
2023/01/09 15:32:53;;;;;;;14.52;4.75;;;;;;;;;;6214263;23;20195;-88
2023/01/09 15:36:01;;;;;;;18.88;7.00;;;;;;;;;;6213724;23;20230;-87
2023/01/09 15:39:07;;;;;;;18.73;5.97;;;;;;;;;;6214471;23;20531;-86
2023/01/09 15:45:46;;;;;;;11.15;4.65;;;;;;;;;;6215215;23;20266;-89
2023/01/09 15:48:54;;;;;;;12.95;4.30;;;;;;;;;;6214831;23;20188;-87
2023/01/09 15:52:01;;;;;;;10.75;4.07;;;;;;;;;;6214596;23;20194;-88
2023/01/09 15:55:16;;;;;;;18.77;5.55;;;;;;;;;;6217525;22;20179;-87
2023/01/09 15:58:28;;;;;;;60.70;12.40;;;;;;;;;;6216942;22;20204;-89
2023/01/09 16:01:43;;;;;;;42.10;8.65;;;;;;;;;;6215993;22;20191;-88
2023/01/09 16:04:53;;;;;;;56.80;12.52;;;;;;;;;;6213782;23;20172;-87
2023/01/09 16:07:59;;;;;;;16.00;4.57;;;;;;;;;;6214540;22;20163;-88
2023/01/09 16:11:06;;;;;;;8.85;3.35;;;;;;;;;;6214386;22;20159;-89
2023/01/09 16:14:14;;;;;;;8.98;2.80;;;;;;;;;;6216439;22;20168;-88
2023/01/09 16:17:25;;;;;;;10.52;2.78;;;;;;;;;;6214584;23;20183;-87
2023/01/09 16:20:30;;;;;;;12.25;4.72;;;;;;;;;;6214602;23;20235;-88
2023/01/09 16:23:37;;;;;;;10.95;5.05;;;;;;;;;;6215685;23;20167;-89
2023/01/09 16:26:43;;;;;;;14.50;4.80;;;;;;;;;;6233146;22;20219;-87
2023/01/09 16:29:49;;;;;;;13.32;4.60;;;;;;;;;;6199900;22;20269;-88
2023/01/09 16:32:56;;;;;;;11.27;4.28;;;;;;;;;;6213960;23;20198;-89
2023/01/09 16:36:02;;;;;;;19.73;6.70;;;;;;;;;;6214572;23;20223;-88
2023/01/09 16:39:09;;;;;;;14.98;3.42;;;;;;;;;;6215380;22;20218;-87
2023/01/09 16:45:38;;;;;;;38.25;13.27;;;;;;;;;;6216492;22;20167;-89
2023/01/09 16:48:47;;;;;;;9.88;3.67;;;;;;;;;;6214861;23;20167;-86
2023/01/09 16:51:55;;;;;;;15.90;5.50;;;;;;;;;;6215922;23;20263;-88
2023/01/09 16:55:01;;;;;;;16.15;5.85;;;;;;;;;;6215921;22;20175;-90
2023/01/09 16:58:06;;;;;;;17.70;7.95;;;;;;;;;;6215932;22;20155;-88
2023/01/09 17:01:13;;;;;;;15.40;6.50;;;;;;;;;;6218399;23;20552;-90
2023/01/09 17:04:35;;;;;;;20.45;6.32;;;;;;;;;;6219596;23;20171;-87
2023/01/09 17:07:42;;;;;;;18.15;7.97;;;;;;;;;;6215254;22;20206;-88
2023/01/09 17:10:47;;;;;;;19.85;8.57;;;;;;;;;;6214952;22;20159;-88
2023/01/09 17:13:52;;;;;;;19.20;7.20;;;;;;;;;;6215439;22;20175;-88
2023/01/09 17:16:59;;;;;;;13.60;6.67;;;;;;;;;;6214110;22;20202;-89
2023/01/09 17:20:12;;;;;;;15.07;5.60;;;;;;;;;;6189599;23;20180;-89
2023/01/09 17:23:21;;;;;;;12.13;5.33;;;;;;;;;;6211134;23;20191;-88
2023/01/09 17:29:50;;;;;;;14.30;6.13;;;;;;;;;;6212567;23;20167;-89
2023/01/09 17:32:56;;;;;;;15.10;5.60;;;;;;;;;;6211144;23;20190;-89
2023/01/09 17:36:02;;;;;;;15.03;6.10;;;;;;;;;;6209474;23;20615;-91
2023/01/09 17:39:23;;;;;;;14.50;6.60;;;;;;;;;;6214007;22;20224;-88
2023/01/09 17:42:28;;;;;;;17.40;7.67;;;;;;;;;;6212832;23;20207;-89
2023/01/09 17:45:33;;;;;;;17.80;5.80;;;;;;;;;;6212948;23;20167;-87
2023/01/09 17:48:39;;;;;;;21.87;8.00;;;;;;;;;;6214096;23;20167;-90
2023/01/09 17:51:45;;;;;;;24.10;9.43;;;;;;;;;;6212090;23;20244;-87
2023/01/09 17:54:51;;;;;;;32.67;7.97;;;;;;;;;;6212929;23;20151;-91
2023/01/09 17:57:56;;;;;;;15.10;6.13;;;;;;;;;;6212468;23;20174;-88
2023/01/09 18:01:02;;;;;;;31.87;11.20;;;;;;;;;;6212916;23;20235;-88
2023/01/09 18:04:07;;;;;;;25.27;10.10;;;;;;;;;;6215975;23;20266;-90
2023/01/09 18:07:16;;;;;;;11.53;5.73;;;;;;;;;;6214348;23;20159;-88
2023/01/09 18:10:26;;;;;;;17.20;6.47;;;;;;;;;;6217614;22;20204;-90
2023/01/09 18:13:32;;;;;;;17.47;6.43;;;;;;;;;;6216928;22;20195;-89
2023/01/09 18:16:37;;;;;;;22.70;8.67;;;;;;;;;;6214388;23;20170;-89
2023/01/09 18:23:02;;;;;;;18.80;7.33;;;;;;;;;;6217318;22;20172;-89
2023/01/09 18:26:17;;;;;;;18.47;6.23;;;;;;;;;;6216447;22;20242;-88
2023/01/09 18:29:22;;;;;;;18.03;6.87;;;;;;;;;;6214949;23;20167;-90
2023/01/09 18:32:27;;;;;;;17.43;6.20;;;;;;;;;;6217515;22;20199;-88
2023/01/09 18:35:33;;;;;;;17.70;6.60;;;;;;;;;;6216571;22;20151;-89
2023/01/09 18:38:42;;;;;;;15.47;6.63;;;;;;;;;;6214521;22;20230;-90
2023/01/09 18:41:49;;;;;;;24.30;10.57;;;;;;;;;;6214888;23;20197;-89
2023/01/09 18:44:54;;;;;;;22.73;9.80;;;;;;;;;;6214812;23;20238;-91
2023/01/09 18:47:59;;;;;;;18.17;8.07;;;;;;;;;;6214229;23;20176;-89
2023/01/09 18:51:05;;;;;;;19.10;6.90;;;;;;;;;;6214892;23;20159;-88
2023/01/09 18:54:12;;;;;;;22.70;9.43;;;;;;;;;;6214629;23;20871;-90
2023/01/09 18:57:18;;;;;;;22.43;8.47;;;;;;;;;;6215901;23;20171;-90
2023/01/09 19:00:23;;;;;;;17.60;7.17;;;;;;;;;;6214762;23;20183;-88